sensor_id;sensor_type;location;lat;lon;timestamp;temperature;humidity
23991;DHT22;12205;50.600;4.608;2022-08-20T00:00:38;18.50;99.90
23991;DHT22;12205;50.600;4.608;2022-08-20T00:03:12;18.40;99.90
23991;DHT22;12205;50.600;4.608;2022-08-20T00:05:43;18.40;99.90
23991;DHT22;12205;50.600;4.608;2022-08-20T00:08:14;18.30;99.90
23991;DHT22;12205;50.600;4.608;2022-08-20T00:10:44;18.20;99.90
23991;DHT22;12205;50.600;4.608;2022-08-20T00:13:15;18.30;99.90
23991;DHT22;12205;50.600;4.608;2022-08-20T00:15:46;18.20;99.90
23991;DHT22;12205;50.600;4.608;2022-08-20T00:18:14;18.10;99.90
23991;DHT22;12205;50.600;4.608;2022-08-20T00:20:43;18.00;99.90
23991;DHT22;12205;50.600;4.608;2022-08-20T00:23:13;18.00;99.90
23991;DHT22;12205;50.600;4.608;2022-08-20T00:25:43;17.90;99.90
23991;DHT22;12205;50.600;4.608;2022-08-20T00:28:11;17.90;99.90
23991;DHT22;12205;50.600;4.608;2022-08-20T00:30:41;17.90;99.90
23991;DHT22;12205;50.600;4.608;2022-08-20T00:33:13;17.90;99.90
23991;DHT22;12205;50.600;4.608;2022-08-20T00:35:45;17.90;99.90
23991;DHT22;12205;50.600;4.608;2022-08-20T00:38:15;18.00;99.90
23991;DHT22;12205;50.600;4.608;2022-08-20T00:40:45;18.00;99.90
23991;DHT22;12205;50.600;4.608;2022-08-20T00:43:28;18.00;99.90
23991;DHT22;12205;50.600;4.608;2022-08-20T00:46:00;17.80;99.90
23991;DHT22;12205;50.600;4.608;2022-08-20T00:48:30;17.70;99.90
23991;DHT22;12205;50.600;4.608;2022-08-20T00:51:02;17.70;99.90
23991;DHT22;12205;50.600;4.608;2022-08-20T00:53:33;17.80;99.90
23991;DHT22;12205;50.600;4.608;2022-08-20T00:56:04;17.70;99.90
23991;DHT22;12205;50.600;4.608;2022-08-20T00:58:33;17.70;99.90
23991;DHT22;12205;50.600;4.608;2022-08-20T01:01:02;17.70;99.90
23991;DHT22;12205;50.600;4.608;2022-08-20T01:03:31;17.70;99.90
23991;DHT22;12205;50.600;4.608;2022-08-20T01:05:58;17.70;99.90
23991;DHT22;12205;50.600;4.608;2022-08-20T01:08:25;17.70;99.90
23991;DHT22;12205;50.600;4.608;2022-08-20T01:10:54;17.70;99.90
23991;DHT22;12205;50.600;4.608;2022-08-20T01:13:35;17.70;99.90
23991;DHT22;12205;50.600;4.608;2022-08-20T01:16:07;17.60;99.90
23991;DHT22;12205;50.600;4.608;2022-08-20T01:18:39;17.50;99.90
23991;DHT22;12205;50.600;4.608;2022-08-20T01:21:07;17.50;99.90
23991;DHT22;12205;50.600;4.608;2022-08-20T01:23:42;17.40;99.90
23991;DHT22;12205;50.600;4.608;2022-08-20T01:26:21;17.40;99.90
23991;DHT22;12205;50.600;4.608;2022-08-20T01:28:53;17.30;99.90
23991;DHT22;12205;50.600;4.608;2022-08-20T01:31:25;17.20;99.90
23991;DHT22;12205;50.600;4.608;2022-08-20T01:33:56;17.20;99.90
23991;DHT22;12205;50.600;4.608;2022-08-20T01:36:28;17.20;99.90
23991;DHT22;12205;50.600;4.608;2022-08-20T01:39:00;17.20;99.90
23991;DHT22;12205;50.600;4.608;2022-08-20T01:41:56;17.10;99.90
23991;DHT22;12205;50.600;4.608;2022-08-20T01:44:30;17.00;99.90
23991;DHT22;12205;50.600;4.608;2022-08-20T01:47:08;16.90;99.90
23991;DHT22;12205;50.600;4.608;2022-08-20T01:49:41;16.80;99.90
23991;DHT22;12205;50.600;4.608;2022-08-20T01:52:30;16.80;99.90
23991;DHT22;12205;50.600;4.608;2022-08-20T01:55:02;16.90;99.90
23991;DHT22;12205;50.600;4.608;2022-08-20T01:57:31;16.70;99.90
23991;DHT22;12205;50.600;4.608;2022-08-20T02:00:00;16.70;99.90
23991;DHT22;12205;50.600;4.608;2022-08-20T02:02:31;16.70;99.90
23991;DHT22;12205;50.600;4.608;2022-08-20T02:04:58;16.70;99.90
23991;DHT22;12205;50.600;4.608;2022-08-20T02:07:25;16.70;99.90
23991;DHT22;12205;50.600;4.608;2022-08-20T02:09:54;16.70;99.90
23991;DHT22;12205;50.600;4.608;2022-08-20T02:12:21;16.60;99.90
23991;DHT22;12205;50.600;4.608;2022-08-20T02:14:51;16.50;99.90
23991;DHT22;12205;50.600;4.608;2022-08-20T02:17:22;16.40;99.90
23991;DHT22;12205;50.600;4.608;2022-08-20T02:19:52;16.40;99.90
23991;DHT22;12205;50.600;4.608;2022-08-20T02:22:25;16.40;99.90
23991;DHT22;12205;50.600;4.608;2022-08-20T02:24:59;16.30;99.90
23991;DHT22;12205;50.600;4.608;2022-08-20T02:27:30;16.30;99.90
23991;DHT22;12205;50.600;4.608;2022-08-20T02:30:03;16.20;99.90
23991;DHT22;12205;50.600;4.608;2022-08-20T02:32:35;16.20;99.90
23991;DHT22;12205;50.600;4.608;2022-08-20T02:35:03;16.20;99.90
23991;DHT22;12205;50.600;4.608;2022-08-20T02:37:33;16.20;99.90
23991;DHT22;12205;50.600;4.608;2022-08-20T02:40:01;16.10;99.90
23991;DHT22;12205;50.600;4.608;2022-08-20T02:42:30;16.00;99.90
23991;DHT22;12205;50.600;4.608;2022-08-20T02:44:57;16.00;99.90
23991;DHT22;12205;50.600;4.608;2022-08-20T02:47:25;16.00;99.90
23991;DHT22;12205;50.600;4.608;2022-08-20T02:49:53;16.00;99.90
23991;DHT22;12205;50.600;4.608;2022-08-20T02:52:21;16.00;99.90
23991;DHT22;12205;50.600;4.608;2022-08-20T02:54:48;15.90;99.90
23991;DHT22;12205;50.600;4.608;2022-08-20T02:57:17;15.90;99.90
23991;DHT22;12205;50.600;4.608;2022-08-20T02:59:46;15.90;99.90
23991;DHT22;12205;50.600;4.608;2022-08-20T03:02:14;16.00;99.90
23991;DHT22;12205;50.600;4.608;2022-08-20T03:04:43;16.00;99.90
23991;DHT22;12205;50.600;4.608;2022-08-20T03:07:10;16.10;99.90
23991;DHT22;12205;50.600;4.608;2022-08-20T03:09:38;16.10;99.90
23991;DHT22;12205;50.600;4.608;2022-08-20T03:12:07;16.10;99.90
23991;DHT22;12205;50.600;4.608;2022-08-20T03:14:35;16.10;99.90
23991;DHT22;12205;50.600;4.608;2022-08-20T03:17:03;16.00;99.90
23991;DHT22;12205;50.600;4.608;2022-08-20T03:19:30;16.00;99.90
23991;DHT22;12205;50.600;4.608;2022-08-20T03:21:59;15.90;99.90
23991;DHT22;12205;50.600;4.608;2022-08-20T03:24:26;15.90;99.90
23991;DHT22;12205;50.600;4.608;2022-08-20T03:26:53;15.90;99.90
23991;DHT22;12205;50.600;4.608;2022-08-20T03:29:20;15.80;99.90
23991;DHT22;12205;50.600;4.608;2022-08-20T03:31:47;15.80;99.90
23991;DHT22;12205;50.600;4.608;2022-08-20T03:34:14;15.70;99.90
23991;DHT22;12205;50.600;4.608;2022-08-20T03:36:41;15.70;99.90
23991;DHT22;12205;50.600;4.608;2022-08-20T03:39:10;15.70;99.90
23991;DHT22;12205;50.600;4.608;2022-08-20T03:41:38;15.60;99.90
23991;DHT22;12205;50.600;4.608;2022-08-20T03:44:05;15.60;99.90
23991;DHT22;12205;50.600;4.608;2022-08-20T03:46:32;15.60;99.90
23991;DHT22;12205;50.600;4.608;2022-08-20T03:48:59;15.60;99.90
23991;DHT22;12205;50.600;4.608;2022-08-20T03:51:27;15.60;99.90
23991;DHT22;12205;50.600;4.608;2022-08-20T03:53:55;15.60;99.90
23991;DHT22;12205;50.600;4.608;2022-08-20T03:56:25;15.60;99.90
23991;DHT22;12205;50.600;4.608;2022-08-20T03:58:53;15.60;99.90
23991;DHT22;12205;50.600;4.608;2022-08-20T04:01:20;15.70;99.90
23991;DHT22;12205;50.600;4.608;2022-08-20T04:03:48;15.60;99.90
23991;DHT22;12205;50.600;4.608;2022-08-20T04:06:15;15.70;99.90
23991;DHT22;12205;50.600;4.608;2022-08-20T04:08:43;15.60;99.90
23991;DHT22;12205;50.600;4.608;2022-08-20T04:11:10;15.60;99.90
23991;DHT22;12205;50.600;4.608;2022-08-20T04:13:39;15.60;99.90
23991;DHT22;12205;50.600;4.608;2022-08-20T04:16:06;15.60;99.90
23991;DHT22;12205;50.600;4.608;2022-08-20T04:18:34;15.50;99.90
23991;DHT22;12205;50.600;4.608;2022-08-20T04:21:03;15.50;99.90
23991;DHT22;12205;50.600;4.608;2022-08-20T04:23:30;15.50;99.90
23991;DHT22;12205;50.600;4.608;2022-08-20T04:25:58;15.50;99.90
23991;DHT22;12205;50.600;4.608;2022-08-20T04:28:26;15.60;99.90
23991;DHT22;12205;50.600;4.608;2022-08-20T04:30:57;15.60;99.90
23991;DHT22;12205;50.600;4.608;2022-08-20T04:33:26;15.60;99.90
23991;DHT22;12205;50.600;4.608;2022-08-20T04:35:57;15.60;99.90
23991;DHT22;12205;50.600;4.608;2022-08-20T04:38:28;15.50;99.90
23991;DHT22;12205;50.600;4.608;2022-08-20T04:40:56;15.40;99.90
23991;DHT22;12205;50.600;4.608;2022-08-20T04:43:27;15.40;99.90
23991;DHT22;12205;50.600;4.608;2022-08-20T04:46:02;15.40;99.90
23991;DHT22;12205;50.600;4.608;2022-08-20T04:48:34;15.40;99.90
23991;DHT22;12205;50.600;4.608;2022-08-20T04:51:04;15.50;99.90
23991;DHT22;12205;50.600;4.608;2022-08-20T04:53:32;15.50;99.90
23991;DHT22;12205;50.600;4.608;2022-08-20T04:56:01;15.50;99.90
23991;DHT22;12205;50.600;4.608;2022-08-20T04:58:30;15.40;99.90
23991;DHT22;12205;50.600;4.608;2022-08-20T05:01:04;15.40;99.90
23991;DHT22;12205;50.600;4.608;2022-08-20T05:03:33;15.30;99.90
23991;DHT22;12205;50.600;4.608;2022-08-20T05:06:04;15.30;99.90
23991;DHT22;12205;50.600;4.608;2022-08-20T05:08:32;15.30;99.90
23991;DHT22;12205;50.600;4.608;2022-08-20T05:11:02;15.30;99.90
23991;DHT22;12205;50.600;4.608;2022-08-20T05:13:29;15.30;99.90
23991;DHT22;12205;50.600;4.608;2022-08-20T05:15:56;15.20;99.90
23991;DHT22;12205;50.600;4.608;2022-08-20T05:18:31;15.20;99.90
23991;DHT22;12205;50.600;4.608;2022-08-20T05:21:00;15.20;99.90
23991;DHT22;12205;50.600;4.608;2022-08-20T05:23:31;15.20;99.90
23991;DHT22;12205;50.600;4.608;2022-08-20T05:25:59;15.20;99.90
23991;DHT22;12205;50.600;4.608;2022-08-20T05:28:32;15.20;99.90
23991;DHT22;12205;50.600;4.608;2022-08-20T05:31:01;15.30;99.90
23991;DHT22;12205;50.600;4.608;2022-08-20T05:33:33;15.30;99.90
23991;DHT22;12205;50.600;4.608;2022-08-20T05:36:00;15.30;99.90
23991;DHT22;12205;50.600;4.608;2022-08-20T05:38:29;15.30;99.90
23991;DHT22;12205;50.600;4.608;2022-08-20T05:40:57;15.40;99.90
23991;DHT22;12205;50.600;4.608;2022-08-20T05:43:24;15.40;99.90
23991;DHT22;12205;50.600;4.608;2022-08-20T05:45:51;15.50;99.90
23991;DHT22;12205;50.600;4.608;2022-08-20T05:48:20;15.50;99.90
23991;DHT22;12205;50.600;4.608;2022-08-20T05:50:50;15.50;99.90
23991;DHT22;12205;50.600;4.608;2022-08-20T05:53:21;15.50;99.90
23991;DHT22;12205;50.600;4.608;2022-08-20T05:55:50;15.60;99.90
23991;DHT22;12205;50.600;4.608;2022-08-20T05:58:20;15.60;99.90
23991;DHT22;12205;50.600;4.608;2022-08-20T06:00:51;15.60;99.90
23991;DHT22;12205;50.600;4.608;2022-08-20T06:03:19;15.70;99.90
23991;DHT22;12205;50.600;4.608;2022-08-20T06:06:06;15.80;99.90
23991;DHT22;12205;50.600;4.608;2022-08-20T06:08:33;15.70;99.90
23991;DHT22;12205;50.600;4.608;2022-08-20T06:11:01;15.80;99.90
23991;DHT22;12205;50.600;4.608;2022-08-20T06:13:29;15.90;99.90
23991;DHT22;12205;50.600;4.608;2022-08-20T06:15:56;16.00;99.90
23991;DHT22;12205;50.600;4.608;2022-08-20T06:18:24;16.20;99.90
23991;DHT22;12205;50.600;4.608;2022-08-20T06:20:51;16.20;99.90
23991;DHT22;12205;50.600;4.608;2022-08-20T06:23:20;16.30;99.90
23991;DHT22;12205;50.600;4.608;2022-08-20T06:25:49;16.40;99.90
23991;DHT22;12205;50.600;4.608;2022-08-20T06:28:17;16.40;99.90
23991;DHT22;12205;50.600;4.608;2022-08-20T06:30:44;16.50;99.90
23991;DHT22;12205;50.600;4.608;2022-08-20T06:33:12;16.50;99.90
23991;DHT22;12205;50.600;4.608;2022-08-20T06:35:39;16.60;99.90
23991;DHT22;12205;50.600;4.608;2022-08-20T06:38:08;16.70;99.90
23991;DHT22;12205;50.600;4.608;2022-08-20T06:40:38;16.80;99.90
23991;DHT22;12205;50.600;4.608;2022-08-20T06:43:05;16.90;99.90
23991;DHT22;12205;50.600;4.608;2022-08-20T06:45:33;17.00;99.90
23991;DHT22;12205;50.600;4.608;2022-08-20T06:48:08;17.10;99.90
23991;DHT22;12205;50.600;4.608;2022-08-20T06:50:38;17.10;99.90
23991;DHT22;12205;50.600;4.608;2022-08-20T06:53:08;17.10;99.90
23991;DHT22;12205;50.600;4.608;2022-08-20T06:55:41;17.20;99.90
23991;DHT22;12205;50.600;4.608;2022-08-20T06:58:12;17.30;99.90
23991;DHT22;12205;50.600;4.608;2022-08-20T07:00:41;17.30;99.90
23991;DHT22;12205;50.600;4.608;2022-08-20T07:03:10;17.30;99.90
23991;DHT22;12205;50.600;4.608;2022-08-20T07:05:39;17.20;99.90
23991;DHT22;12205;50.600;4.608;2022-08-20T07:08:08;17.20;99.90
23991;DHT22;12205;50.600;4.608;2022-08-20T07:10:38;17.20;99.90
23991;DHT22;12205;50.600;4.608;2022-08-20T07:13:06;17.20;99.90
23991;DHT22;12205;50.600;4.608;2022-08-20T07:15:34;17.30;99.90
23991;DHT22;12205;50.600;4.608;2022-08-20T07:18:03;17.40;99.90
23991;DHT22;12205;50.600;4.608;2022-08-20T07:20:33;17.40;99.90
23991;DHT22;12205;50.600;4.608;2022-08-20T07:23:02;17.40;99.90
23991;DHT22;12205;50.600;4.608;2022-08-20T07:25:30;17.50;99.90
23991;DHT22;12205;50.600;4.608;2022-08-20T07:28:04;17.70;99.90
23991;DHT22;12205;50.600;4.608;2022-08-20T07:30:34;17.90;99.90
23991;DHT22;12205;50.600;4.608;2022-08-20T07:33:25;18.10;99.90
23991;DHT22;12205;50.600;4.608;2022-08-20T07:35:52;18.30;99.90
23991;DHT22;12205;50.600;4.608;2022-08-20T07:38:21;18.40;99.90
23991;DHT22;12205;50.600;4.608;2022-08-20T07:40:51;18.40;99.90
23991;DHT22;12205;50.600;4.608;2022-08-20T07:43:20;18.70;99.90
23991;DHT22;12205;50.600;4.608;2022-08-20T07:45:48;18.90;99.90
23991;DHT22;12205;50.600;4.608;2022-08-20T07:48:16;19.20;99.90
23991;DHT22;12205;50.600;4.608;2022-08-20T07:50:43;19.10;99.90
23991;DHT22;12205;50.600;4.608;2022-08-20T07:53:12;18.90;99.90
23991;DHT22;12205;50.600;4.608;2022-08-20T07:55:39;18.70;99.90
23991;DHT22;12205;50.600;4.608;2022-08-20T07:58:09;18.70;99.90
23991;DHT22;12205;50.600;4.608;2022-08-20T08:00:40;18.90;99.90
23991;DHT22;12205;50.600;4.608;2022-08-20T08:03:08;18.90;99.90
23991;DHT22;12205;50.600;4.608;2022-08-20T08:05:37;19.00;99.90
23991;DHT22;12205;50.600;4.608;2022-08-20T08:08:07;19.00;99.90
23991;DHT22;12205;50.600;4.608;2022-08-20T08:10:40;19.00;99.90
23991;DHT22;12205;50.600;4.608;2022-08-20T08:13:09;19.00;99.90
23991;DHT22;12205;50.600;4.608;2022-08-20T08:15:43;19.00;99.90
23991;DHT22;12205;50.600;4.608;2022-08-20T08:18:15;19.10;99.90
23991;DHT22;12205;50.600;4.608;2022-08-20T08:20:46;19.10;99.90
23991;DHT22;12205;50.600;4.608;2022-08-20T08:23:15;19.30;99.90
23991;DHT22;12205;50.600;4.608;2022-08-20T08:25:42;19.40;99.90
23991;DHT22;12205;50.600;4.608;2022-08-20T08:28:11;19.40;99.90
23991;DHT22;12205;50.600;4.608;2022-08-20T08:30:41;19.50;99.90
23991;DHT22;12205;50.600;4.608;2022-08-20T08:33:17;19.60;99.90
23991;DHT22;12205;50.600;4.608;2022-08-20T08:35:57;19.60;99.90
23991;DHT22;12205;50.600;4.608;2022-08-20T08:38:26;19.60;99.90
23991;DHT22;12205;50.600;4.608;2022-08-20T08:40:56;19.70;99.90
23991;DHT22;12205;50.600;4.608;2022-08-20T08:43:25;19.80;99.90
23991;DHT22;12205;50.600;4.608;2022-08-20T08:45:58;19.90;99.90
23991;DHT22;12205;50.600;4.608;2022-08-20T08:48:32;19.90;99.90
23991;DHT22;12205;50.600;4.608;2022-08-20T08:51:03;20.00;99.90
23991;DHT22;12205;50.600;4.608;2022-08-20T08:53:39;20.10;99.90
23991;DHT22;12205;50.600;4.608;2022-08-20T08:56:11;20.20;99.90
23991;DHT22;12205;50.600;4.608;2022-08-20T08:58:41;20.30;99.90
23991;DHT22;12205;50.600;4.608;2022-08-20T09:01:13;20.30;99.90
23991;DHT22;12205;50.600;4.608;2022-08-20T09:03:48;20.40;99.90
23991;DHT22;12205;50.600;4.608;2022-08-20T09:06:19;20.60;99.90
23991;DHT22;12205;50.600;4.608;2022-08-20T09:08:54;20.70;99.90
23991;DHT22;12205;50.600;4.608;2022-08-20T09:11:25;20.70;99.90
23991;DHT22;12205;50.600;4.608;2022-08-20T09:13:54;20.70;99.90
23991;DHT22;12205;50.600;4.608;2022-08-20T09:16:24;20.80;99.90
23991;DHT22;12205;50.600;4.608;2022-08-20T09:18:53;20.90;99.90
23991;DHT22;12205;50.600;4.608;2022-08-20T09:21:20;21.10;99.90
23991;DHT22;12205;50.600;4.608;2022-08-20T09:23:47;21.20;99.90
23991;DHT22;12205;50.600;4.608;2022-08-20T09:26:14;21.20;99.90
23991;DHT22;12205;50.600;4.608;2022-08-20T09:28:41;21.40;99.90
23991;DHT22;12205;50.600;4.608;2022-08-20T09:31:08;21.50;99.90
23991;DHT22;12205;50.600;4.608;2022-08-20T09:33:37;21.70;99.90
23991;DHT22;12205;50.600;4.608;2022-08-20T09:36:04;21.70;99.90
23991;DHT22;12205;50.600;4.608;2022-08-20T09:38:31;21.60;99.90
23991;DHT22;12205;50.600;4.608;2022-08-20T09:40:58;21.60;99.90
23991;DHT22;12205;50.600;4.608;2022-08-20T09:43:25;21.60;99.90
23991;DHT22;12205;50.600;4.608;2022-08-20T09:45:53;21.60;99.90
23991;DHT22;12205;50.600;4.608;2022-08-20T09:48:20;21.40;99.90
23991;DHT22;12205;50.600;4.608;2022-08-20T09:50:49;21.50;99.90
23991;DHT22;12205;50.600;4.608;2022-08-20T09:53:18;21.50;99.90
23991;DHT22;12205;50.600;4.608;2022-08-20T09:55:49;21.50;99.90
23991;DHT22;12205;50.600;4.608;2022-08-20T09:58:21;21.50;99.90
23991;DHT22;12205;50.600;4.608;2022-08-20T10:00:52;21.70;99.90
23991;DHT22;12205;50.600;4.608;2022-08-20T10:03:19;21.90;99.90
23991;DHT22;12205;50.600;4.608;2022-08-20T10:05:47;22.00;99.90
23991;DHT22;12205;50.600;4.608;2022-08-20T10:08:14;22.10;99.90
23991;DHT22;12205;50.600;4.608;2022-08-20T10:10:41;22.20;99.90
23991;DHT22;12205;50.600;4.608;2022-08-20T10:13:08;22.20;99.90
23991;DHT22;12205;50.600;4.608;2022-08-20T10:15:35;22.10;99.90
23991;DHT22;12205;50.600;4.608;2022-08-20T10:18:04;22.20;99.90
23991;DHT22;12205;50.600;4.608;2022-08-20T10:20:32;22.40;99.90
23991;DHT22;12205;50.600;4.608;2022-08-20T10:23:01;22.50;99.90
23991;DHT22;12205;50.600;4.608;2022-08-20T10:25:29;22.60;99.90
23991;DHT22;12205;50.600;4.608;2022-08-20T10:27:56;22.60;99.90
23991;DHT22;12205;50.600;4.608;2022-08-20T10:30:24;22.40;99.90
23991;DHT22;12205;50.600;4.608;2022-08-20T10:32:52;22.50;99.90
23991;DHT22;12205;50.600;4.608;2022-08-20T10:35:19;22.60;99.90
23991;DHT22;12205;50.600;4.608;2022-08-20T10:37:47;22.50;99.90
23991;DHT22;12205;50.600;4.608;2022-08-20T10:40:15;22.40;99.90
23991;DHT22;12205;50.600;4.608;2022-08-20T10:42:43;22.30;99.90
23991;DHT22;12205;50.600;4.608;2022-08-20T10:45:11;22.40;99.90
23991;DHT22;12205;50.600;4.608;2022-08-20T10:47:40;22.40;99.90
23991;DHT22;12205;50.600;4.608;2022-08-20T10:50:10;22.50;99.90
23991;DHT22;12205;50.600;4.608;2022-08-20T10:52:40;22.60;99.90
23991;DHT22;12205;50.600;4.608;2022-08-20T10:55:09;22.80;99.90
23991;DHT22;12205;50.600;4.608;2022-08-20T10:57:39;22.90;99.90
23991;DHT22;12205;50.600;4.608;2022-08-20T11:00:08;23.00;99.90
23991;DHT22;12205;50.600;4.608;2022-08-20T11:02:37;23.10;99.90
23991;DHT22;12205;50.600;4.608;2022-08-20T11:05:05;23.20;99.90
23991;DHT22;12205;50.600;4.608;2022-08-20T11:07:35;23.20;99.90
23991;DHT22;12205;50.600;4.608;2022-08-20T11:10:06;23.10;99.90
23991;DHT22;12205;50.600;4.608;2022-08-20T11:12:34;22.90;99.90
23991;DHT22;12205;50.600;4.608;2022-08-20T11:15:03;22.80;99.90
23991;DHT22;12205;50.600;4.608;2022-08-20T11:17:35;22.80;99.90
23991;DHT22;12205;50.600;4.608;2022-08-20T11:20:07;23.00;99.90
23991;DHT22;12205;50.600;4.608;2022-08-20T11:22:36;23.10;99.90
23991;DHT22;12205;50.600;4.608;2022-08-20T11:25:04;23.10;99.90
23991;DHT22;12205;50.600;4.608;2022-08-20T11:27:36;23.00;99.90
23991;DHT22;12205;50.600;4.608;2022-08-20T11:30:11;23.00;99.90
23991;DHT22;12205;50.600;4.608;2022-08-20T11:32:41;23.20;99.90
23991;DHT22;12205;50.600;4.608;2022-08-20T11:35:08;23.30;99.90
23991;DHT22;12205;50.600;4.608;2022-08-20T11:37:35;23.40;99.90
23991;DHT22;12205;50.600;4.608;2022-08-20T11:40:03;23.70;99.90
23991;DHT22;12205;50.600;4.608;2022-08-20T11:42:33;24.00;99.90
23991;DHT22;12205;50.600;4.608;2022-08-20T11:45:00;24.20;99.90
23991;DHT22;12205;50.600;4.608;2022-08-20T11:47:29;24.40;99.90
23991;DHT22;12205;50.600;4.608;2022-08-20T11:49:59;24.30;99.90
23991;DHT22;12205;50.600;4.608;2022-08-20T11:52:28;24.40;99.90
23991;DHT22;12205;50.600;4.608;2022-08-20T11:54:56;24.50;99.90
23991;DHT22;12205;50.600;4.608;2022-08-20T11:57:27;24.60;99.90
23991;DHT22;12205;50.600;4.608;2022-08-20T11:59:56;24.80;99.90
23991;DHT22;12205;50.600;4.608;2022-08-20T12:02:24;25.00;99.90
23991;DHT22;12205;50.600;4.608;2022-08-20T12:04:53;25.20;99.90
23991;DHT22;12205;50.600;4.608;2022-08-20T12:07:23;25.10;99.90
23991;DHT22;12205;50.600;4.608;2022-08-20T12:09:53;25.00;99.90
23991;DHT22;12205;50.600;4.608;2022-08-20T12:12:22;25.40;99.90
23991;DHT22;12205;50.600;4.608;2022-08-20T12:14:50;25.70;99.90
23991;DHT22;12205;50.600;4.608;2022-08-20T12:17:21;25.60;99.90
23991;DHT22;12205;50.600;4.608;2022-08-20T12:19:51;26.20;99.90
23991;DHT22;12205;50.600;4.608;2022-08-20T12:22:22;26.80;99.90
23991;DHT22;12205;50.600;4.608;2022-08-20T12:24:50;26.10;99.90
23991;DHT22;12205;50.600;4.608;2022-08-20T12:27:19;26.00;99.90
23991;DHT22;12205;50.600;4.608;2022-08-20T12:29:49;26.70;99.90
23991;DHT22;12205;50.600;4.608;2022-08-20T12:32:18;27.20;99.90
23991;DHT22;12205;50.600;4.608;2022-08-20T12:34:46;27.30;99.90
23991;DHT22;12205;50.600;4.608;2022-08-20T12:37:16;28.10;99.90
23991;DHT22;12205;50.600;4.608;2022-08-20T12:39:47;28.50;99.90
23991;DHT22;12205;50.600;4.608;2022-08-20T12:42:18;28.00;99.90
23991;DHT22;12205;50.600;4.608;2022-08-20T12:44:46;27.80;99.10
23991;DHT22;12205;50.600;4.608;2022-08-20T12:47:16;27.80;98.20
23991;DHT22;12205;50.600;4.608;2022-08-20T12:49:45;28.10;98.90
23991;DHT22;12205;50.600;4.608;2022-08-20T12:52:15;28.60;98.40
23991;DHT22;12205;50.600;4.608;2022-08-20T12:54:45;28.90;96.90
23991;DHT22;12205;50.600;4.608;2022-08-20T12:57:14;28.90;96.00
23991;DHT22;12205;50.600;4.608;2022-08-20T12:59:48;29.40;95.00
23991;DHT22;12205;50.600;4.608;2022-08-20T13:02:15;29.80;93.50
23991;DHT22;12205;50.600;4.608;2022-08-20T13:04:43;30.20;91.90
23991;DHT22;12205;50.600;4.608;2022-08-20T13:07:11;30.60;90.40
23991;DHT22;12205;50.600;4.608;2022-08-20T13:09:50;30.30;91.10
23991;DHT22;12205;50.600;4.608;2022-08-20T13:12:17;30.20;89.70
23991;DHT22;12205;50.600;4.608;2022-08-20T13:14:45;30.30;89.30
23991;DHT22;12205;50.600;4.608;2022-08-20T13:17:16;30.50;88.50
23991;DHT22;12205;50.600;4.608;2022-08-20T13:19:44;31.40;89.70
23991;DHT22;12205;50.600;4.608;2022-08-20T13:22:13;31.80;86.00
23991;DHT22;12205;50.600;4.608;2022-08-20T13:24:41;31.50;84.40
23991;DHT22;12205;50.600;4.608;2022-08-20T13:27:11;30.70;83.30
23991;DHT22;12205;50.600;4.608;2022-08-20T13:29:45;30.90;83.40
23991;DHT22;12205;50.600;4.608;2022-08-20T13:32:13;31.30;83.90
23991;DHT22;12205;50.600;4.608;2022-08-20T13:34:40;31.90;79.80
23991;DHT22;12205;50.600;4.608;2022-08-20T13:37:11;31.10;77.40
23991;DHT22;12205;50.600;4.608;2022-08-20T13:39:39;30.90;82.30
23991;DHT22;12205;50.600;4.608;2022-08-20T13:42:08;31.70;79.30
23991;DHT22;12205;50.600;4.608;2022-08-20T13:44:37;32.00;77.50
23991;DHT22;12205;50.600;4.608;2022-08-20T13:47:14;32.30;73.90
23991;DHT22;12205;50.600;4.608;2022-08-20T13:49:42;32.40;72.70
23991;DHT22;12205;50.600;4.608;2022-08-20T13:52:10;31.30;73.00
23991;DHT22;12205;50.600;4.608;2022-08-20T13:54:38;31.10;77.20
23991;DHT22;12205;50.600;4.608;2022-08-20T13:57:09;32.10;78.50
23991;DHT22;12205;50.600;4.608;2022-08-20T13:59:41;32.40;74.20
23991;DHT22;12205;50.600;4.608;2022-08-20T14:02:11;32.60;72.30
23991;DHT22;12205;50.600;4.608;2022-08-20T14:04:39;31.60;71.80
23991;DHT22;12205;50.600;4.608;2022-08-20T14:07:11;30.40;73.80
23991;DHT22;12205;50.600;4.608;2022-08-20T14:09:42;30.60;72.90
23991;DHT22;12205;50.600;4.608;2022-08-20T14:12:13;29.70;74.50
23991;DHT22;12205;50.600;4.608;2022-08-20T14:14:42;30.00;75.80
23991;DHT22;12205;50.600;4.608;2022-08-20T14:17:14;30.70;73.30
23991;DHT22;12205;50.600;4.608;2022-08-20T14:19:42;31.60;71.40
23991;DHT22;12205;50.600;4.608;2022-08-20T14:22:10;31.20;71.40
23991;DHT22;12205;50.600;4.608;2022-08-20T14:24:38;30.70;71.70
23991;DHT22;12205;50.600;4.608;2022-08-20T14:27:07;31.00;71.40
23991;DHT22;12205;50.600;4.608;2022-08-20T14:29:37;31.30;72.10
23991;DHT22;12205;50.600;4.608;2022-08-20T14:32:06;31.40;70.20
23991;DHT22;12205;50.600;4.608;2022-08-20T14:34:33;31.20;70.30
23991;DHT22;12205;50.600;4.608;2022-08-20T14:37:12;32.10;69.30
23991;DHT22;12205;50.600;4.608;2022-08-20T14:39:42;32.00;66.00
23991;DHT22;12205;50.600;4.608;2022-08-20T14:42:11;31.70;68.20
23991;DHT22;12205;50.600;4.608;2022-08-20T14:44:40;31.50;70.00
23991;DHT22;12205;50.600;4.608;2022-08-20T14:47:15;31.80;67.80
23991;DHT22;12205;50.600;4.608;2022-08-20T14:49:44;30.70;67.90
23991;DHT22;12205;50.600;4.608;2022-08-20T14:52:13;30.60;70.30
23991;DHT22;12205;50.600;4.608;2022-08-20T14:54:43;32.00;68.50
23991;DHT22;12205;50.600;4.608;2022-08-20T14:57:11;33.10;65.00
23991;DHT22;12205;50.600;4.608;2022-08-20T14:59:41;32.60;64.60
23991;DHT22;12205;50.600;4.608;2022-08-20T15:02:11;32.10;65.10
23991;DHT22;12205;50.600;4.608;2022-08-20T15:04:41;32.60;65.20
23991;DHT22;12205;50.600;4.608;2022-08-20T15:07:16;32.60;62.50
23991;DHT22;12205;50.600;4.608;2022-08-20T15:09:48;32.80;63.10
23991;DHT22;12205;50.600;4.608;2022-08-20T15:12:16;32.20;62.30
23991;DHT22;12205;50.600;4.608;2022-08-20T15:14:44;32.20;63.70
23991;DHT22;12205;50.600;4.608;2022-08-20T15:17:17;32.60;62.40
23991;DHT22;12205;50.600;4.608;2022-08-20T15:19:45;32.70;62.00
23991;DHT22;12205;50.600;4.608;2022-08-20T15:22:13;32.90;62.20
23991;DHT22;12205;50.600;4.608;2022-08-20T15:24:40;32.50;61.90
23991;DHT22;12205;50.600;4.608;2022-08-20T15:27:12;31.80;62.10
23991;DHT22;12205;50.600;4.608;2022-08-20T15:29:41;31.80;63.80
23991;DHT22;12205;50.600;4.608;2022-08-20T15:32:09;32.20;62.00
23991;DHT22;12205;50.600;4.608;2022-08-20T15:34:37;32.10;61.50
23991;DHT22;12205;50.600;4.608;2022-08-20T15:37:06;31.90;61.20
23991;DHT22;12205;50.600;4.608;2022-08-20T15:39:34;31.70;62.50
23991;DHT22;12205;50.600;4.608;2022-08-20T15:42:02;32.00;63.70
23991;DHT22;12205;50.600;4.608;2022-08-20T15:44:31;31.50;62.90